createdAt,value
2022-07-25T00:11:54.489Z,6867.55518
2022-07-25T00:26:56.714Z,8366.68359
2022-07-25T00:41:59.689Z,4051.97974
2022-07-25T00:57:02.172Z,12908.3291
2022-07-25T01:12:04.641Z,4693.25293
2022-07-25T01:27:07.799Z,4225.24609
2022-07-25T01:42:19.536Z,8213.19238
2022-07-25T01:57:21.988Z,4501.15332
2022-07-25T02:12:27.599Z,1807.0531
2022-07-25T02:27:29.914Z,1075.38025
2022-07-25T02:42:32.341Z,690.23962
2022-07-25T02:57:34.642Z,487.78192
2022-07-25T03:12:37.105Z,361.59894
2022-07-25T03:27:39.471Z,150.66623
2022-07-25T03:42:41.996Z,29.19158
2022-07-25T03:57:44.271Z,5.64998
2022-07-25T04:12:46.555Z,0.94166
2022-07-25T04:27:48.844Z,0
2022-07-25T04:42:51.108Z,0
2022-07-25T04:57:53.429Z,0
2022-07-25T05:12:55.730Z,0
2022-07-25T05:27:58.191Z,0
2022-07-25T05:43:03.282Z,0
2022-07-25T05:58:06.172Z,0
2022-07-25T06:13:08.451Z,0
2022-07-25T06:28:12.666Z,0
2022-07-25T06:43:20.539Z,0
2022-07-25T06:58:24.050Z,0
2022-07-25T07:13:28.497Z,0
2022-07-25T07:28:30.878Z,0
2022-07-25T07:43:33.166Z,0
2022-07-25T07:58:35.624Z,0
2022-07-25T08:13:37.923Z,0
2022-07-25T08:28:40.240Z,0
2022-07-25T08:43:42.697Z,0
2022-07-25T08:58:44.995Z,0
2022-07-25T09:13:47.292Z,0
2022-07-25T09:28:49.786Z,0
2022-07-25T09:43:52.142Z,0
2022-07-25T09:58:54.436Z,0
2022-07-25T10:13:56.747Z,0
2022-07-25T10:28:59.045Z,0
2022-07-25T10:44:01.420Z,0
2022-07-25T10:59:03.902Z,0
2022-07-25T11:14:06.415Z,0
2022-07-25T11:29:09.344Z,0
2022-07-25T11:44:11.944Z,0.94166
2022-07-25T11:59:14.293Z,12.24163
2022-07-25T12:14:16.599Z,51.79152
2022-07-25T12:29:18.877Z,137.48293
2022-07-25T12:44:21.312Z,263.66589
2022-07-25T12:59:23.601Z,479.30695
2022-07-25T13:14:26.468Z,876.68909
2022-07-25T13:29:28.871Z,1823.0614
2022-07-25T13:44:31.844Z,2101.79395
2022-07-25T13:59:34.141Z,2389.00146
2022-07-25T14:14:36.623Z,3646.1228
2022-07-25T14:29:38.941Z,4150.85449
2022-07-25T14:44:41.329Z,5057.67676
2022-07-25T14:59:43.649Z,4986.11035
2022-07-25T15:14:46.639Z,4999.29395
2022-07-25T15:29:48.961Z,5788.4082
2022-07-25T15:45:03.856Z,7247.04541
2022-07-25T16:00:17.843Z,8188.70947
2022-07-25T16:15:20.137Z,7998.49316
2022-07-25T16:30:22.547Z,8118.08447
2022-07-25T16:45:24.824Z,7559.67773
2022-07-25T17:00:27.127Z,7352.51172
2022-07-25T17:15:29.456Z,6930.64648
2022-07-25T17:30:31.854Z,6761.14697
2022-07-25T17:45:34.184Z,6575.63916
2022-07-25T18:00:36.462Z,6461.69775
2022-07-25T18:15:38.883Z,6575.63916
2022-07-25T18:30:41.264Z,6553.03906
2022-07-25T18:45:43.751Z,6578.46436
2022-07-25T19:00:47.138Z,6590.70557
2022-07-25T19:15:49.569Z,6735.72217
2022-07-25T19:30:51.962Z,6876.97168
2022-07-25T19:45:54.450Z,6993.73779
2022-07-25T20:00:56.865Z,7165.12061
2022-07-25T20:15:59.180Z,7258.3457
2022-07-25T20:31:01.617Z,7331.79541
2022-07-25T20:46:08.848Z,7887.37695
2022-07-25T21:01:11.761Z,7677.38574
2022-07-25T21:16:14.061Z,7478.69482
2022-07-25T21:31:16.412Z,7561.56152
2022-07-25T21:46:18.826Z,7276.2373
2022-07-25T22:01:21.659Z,7175.479
2022-07-25T22:16:24.120Z,7506.94482
2022-07-25T22:31:26.491Z,7542.72803
2022-07-25T22:46:29.032Z,7764.96045
2022-07-25T23:01:31.483Z,8313.95117
2022-07-25T23:16:33.864Z,9281.04004
2022-07-25T23:31:36.269Z,10573.94434
2022-07-25T23:46:38.691Z,11199.20898
